sensor_id;sensor_type;location;lat;lon;timestamp;temperature;humidity
16881;DHT22;8557;52.068;5.198;2023-03-13T00:02:21;8.80;99.90
16881;DHT22;8557;52.068;5.198;2023-03-13T00:04:48;8.80;99.90
16881;DHT22;8557;52.068;5.198;2023-03-13T00:07:15;8.80;99.90
16881;DHT22;8557;52.068;5.198;2023-03-13T00:09:41;8.90;99.90
16881;DHT22;8557;52.068;5.198;2023-03-13T00:12:10;8.80;99.90
16881;DHT22;8557;52.068;5.198;2023-03-13T00:14:36;8.90;99.90
16881;DHT22;8557;52.068;5.198;2023-03-13T00:17:03;8.90;99.90
16881;DHT22;8557;52.068;5.198;2023-03-13T00:19:31;9.00;99.90
16881;DHT22;8557;52.068;5.198;2023-03-13T00:21:57;9.00;99.90
16881;DHT22;8557;52.068;5.198;2023-03-13T00:24:24;9.10;99.90
16881;DHT22;8557;52.068;5.198;2023-03-13T00:26:51;9.10;99.90
16881;DHT22;8557;52.068;5.198;2023-03-13T00:29:19;9.10;99.90
16881;DHT22;8557;52.068;5.198;2023-03-13T00:31:46;9.00;99.90
16881;DHT22;8557;52.068;5.198;2023-03-13T00:34:13;9.00;99.90
16881;DHT22;8557;52.068;5.198;2023-03-13T00:36:40;9.00;99.90
16881;DHT22;8557;52.068;5.198;2023-03-13T00:39:06;9.00;99.90
16881;DHT22;8557;52.068;5.198;2023-03-13T00:41:35;9.00;99.90
16881;DHT22;8557;52.068;5.198;2023-03-13T00:44:02;9.00;99.90
16881;DHT22;8557;52.068;5.198;2023-03-13T00:46:31;9.00;99.90
16881;DHT22;8557;52.068;5.198;2023-03-13T00:48:57;9.00;99.90
16881;DHT22;8557;52.068;5.198;2023-03-13T00:51:25;9.00;99.90
16881;DHT22;8557;52.068;5.198;2023-03-13T00:53:52;9.00;99.90
16881;DHT22;8557;52.068;5.198;2023-03-13T00:56:19;9.00;99.90
16881;DHT22;8557;52.068;5.198;2023-03-13T00:58:47;9.10;99.90
16881;DHT22;8557;52.068;5.198;2023-03-13T01:01:16;9.00;99.90
16881;DHT22;8557;52.068;5.198;2023-03-13T01:03:46;9.10;99.90
16881;DHT22;8557;52.068;5.198;2023-03-13T01:06:16;9.10;99.90
16881;DHT22;8557;52.068;5.198;2023-03-13T01:08:44;9.10;99.90
16881;DHT22;8557;52.068;5.198;2023-03-13T01:11:12;9.20;99.90
16881;DHT22;8557;52.068;5.198;2023-03-13T01:13:40;9.20;99.90
16881;DHT22;8557;52.068;5.198;2023-03-13T01:16:09;9.20;99.90
16881;DHT22;8557;52.068;5.198;2023-03-13T01:18:37;9.10;99.90
16881;DHT22;8557;52.068;5.198;2023-03-13T01:21:06;9.20;99.90
16881;DHT22;8557;52.068;5.198;2023-03-13T01:23:33;9.20;99.90
16881;DHT22;8557;52.068;5.198;2023-03-13T01:26:00;9.20;99.90
16881;DHT22;8557;52.068;5.198;2023-03-13T01:28:27;9.20;99.90
16881;DHT22;8557;52.068;5.198;2023-03-13T01:30:53;9.20;99.90
16881;DHT22;8557;52.068;5.198;2023-03-13T01:33:20;9.30;99.90
16881;DHT22;8557;52.068;5.198;2023-03-13T01:35:47;9.30;99.90
16881;DHT22;8557;52.068;5.198;2023-03-13T01:38:16;9.30;99.90
16881;DHT22;8557;52.068;5.198;2023-03-13T01:40:44;9.30;99.90
16881;DHT22;8557;52.068;5.198;2023-03-13T01:43:16;9.30;99.90
16881;DHT22;8557;52.068;5.198;2023-03-13T01:45:57;9.30;99.90
16881;DHT22;8557;52.068;5.198;2023-03-13T01:48:28;9.40;99.90
16881;DHT22;8557;52.068;5.198;2023-03-13T01:50:58;9.40;99.90
16881;DHT22;8557;52.068;5.198;2023-03-13T01:53:28;9.50;99.90
16881;DHT22;8557;52.068;5.198;2023-03-13T01:55:56;9.60;99.90
16881;DHT22;8557;52.068;5.198;2023-03-13T01:58:23;9.60;99.90
16881;DHT22;8557;52.068;5.198;2023-03-13T02:00:50;9.60;99.90
16881;DHT22;8557;52.068;5.198;2023-03-13T02:03:19;9.70;99.90
16881;DHT22;8557;52.068;5.198;2023-03-13T02:05:47;9.60;99.90
16881;DHT22;8557;52.068;5.198;2023-03-13T02:08:18;9.70;99.90
16881;DHT22;8557;52.068;5.198;2023-03-13T02:10:53;9.80;99.90
16881;DHT22;8557;52.068;5.198;2023-03-13T02:13:23;9.80;99.90
16881;DHT22;8557;52.068;5.198;2023-03-13T02:15:51;9.80;99.90
16881;DHT22;8557;52.068;5.198;2023-03-13T02:18:18;9.80;99.90
16881;DHT22;8557;52.068;5.198;2023-03-13T02:20:45;9.90;99.90
16881;DHT22;8557;52.068;5.198;2023-03-13T02:23:18;9.90;99.90
16881;DHT22;8557;52.068;5.198;2023-03-13T02:25:51;10.00;99.90
16881;DHT22;8557;52.068;5.198;2023-03-13T02:28:20;10.10;99.90
16881;DHT22;8557;52.068;5.198;2023-03-13T02:30:49;10.10;99.90
16881;DHT22;8557;52.068;5.198;2023-03-13T02:33:17;10.20;99.90
16881;DHT22;8557;52.068;5.198;2023-03-13T02:35:45;10.20;99.90
16881;DHT22;8557;52.068;5.198;2023-03-13T02:38:16;10.20;99.90
16881;DHT22;8557;52.068;5.198;2023-03-13T02:40:47;10.20;99.90
16881;DHT22;8557;52.068;5.198;2023-03-13T02:43:21;10.20;99.90
16881;DHT22;8557;52.068;5.198;2023-03-13T02:46:07;10.30;99.90
16881;DHT22;8557;52.068;5.198;2023-03-13T02:48:37;10.40;99.90
16881;DHT22;8557;52.068;5.198;2023-03-13T02:51:07;10.40;99.90
16881;DHT22;8557;52.068;5.198;2023-03-13T02:53:36;10.40;99.90
16881;DHT22;8557;52.068;5.198;2023-03-13T02:56:04;10.50;99.90
16881;DHT22;8557;52.068;5.198;2023-03-13T02:58:38;10.50;99.90
16881;DHT22;8557;52.068;5.198;2023-03-13T03:01:05;10.60;99.90
16881;DHT22;8557;52.068;5.198;2023-03-13T03:03:32;10.70;99.90
16881;DHT22;8557;52.068;5.198;2023-03-13T03:06:00;10.70;99.90
16881;DHT22;8557;52.068;5.198;2023-03-13T03:08:27;10.80;99.90
16881;DHT22;8557;52.068;5.198;2023-03-13T03:10:54;10.90;99.90
16881;DHT22;8557;52.068;5.198;2023-03-13T03:13:20;10.90;99.90
16881;DHT22;8557;52.068;5.198;2023-03-13T03:18:16;11.00;99.90
16881;DHT22;8557;52.068;5.198;2023-03-13T03:20:43;11.00;99.90
16881;DHT22;8557;52.068;5.198;2023-03-13T03:23:09;11.00;99.90
16881;DHT22;8557;52.068;5.198;2023-03-13T03:25:36;11.00;99.90
16881;DHT22;8557;52.068;5.198;2023-03-13T03:28:03;11.10;99.90
16881;DHT22;8557;52.068;5.198;2023-03-13T03:30:30;11.10;99.90
16881;DHT22;8557;52.068;5.198;2023-03-13T03:32:57;11.10;99.90
16881;DHT22;8557;52.068;5.198;2023-03-13T03:35:25;11.10;99.90
16881;DHT22;8557;52.068;5.198;2023-03-13T03:37:52;11.20;99.90
16881;DHT22;8557;52.068;5.198;2023-03-13T03:40:19;11.20;99.90
16881;DHT22;8557;52.068;5.198;2023-03-13T03:42:46;11.20;99.90
16881;DHT22;8557;52.068;5.198;2023-03-13T03:45:12;11.30;99.90
16881;DHT22;8557;52.068;5.198;2023-03-13T03:47:39;11.30;99.90
16881;DHT22;8557;52.068;5.198;2023-03-13T03:50:07;11.30;99.90
16881;DHT22;8557;52.068;5.198;2023-03-13T03:52:37;11.40;99.90
16881;DHT22;8557;52.068;5.198;2023-03-13T03:55:04;11.40;99.90
16881;DHT22;8557;52.068;5.198;2023-03-13T03:57:31;11.40;99.90
16881;DHT22;8557;52.068;5.198;2023-03-13T03:59:58;11.40;99.90
16881;DHT22;8557;52.068;5.198;2023-03-13T04:02:25;11.40;99.90
16881;DHT22;8557;52.068;5.198;2023-03-13T04:04:52;11.40;99.90
16881;DHT22;8557;52.068;5.198;2023-03-13T04:07:18;11.40;99.90
16881;DHT22;8557;52.068;5.198;2023-03-13T04:09:47;11.50;99.90
16881;DHT22;8557;52.068;5.198;2023-03-13T04:12:13;11.50;99.90
16881;DHT22;8557;52.068;5.198;2023-03-13T04:14:40;11.40;99.90
16881;DHT22;8557;52.068;5.198;2023-03-13T04:17:07;11.50;99.90
16881;DHT22;8557;52.068;5.198;2023-03-13T04:19:34;11.50;99.90
16881;DHT22;8557;52.068;5.198;2023-03-13T04:22:00;11.60;99.90
16881;DHT22;8557;52.068;5.198;2023-03-13T04:24:27;11.60;99.90
16881;DHT22;8557;52.068;5.198;2023-03-13T04:26:55;11.60;99.90
16881;DHT22;8557;52.068;5.198;2023-03-13T04:29:22;11.60;99.90
16881;DHT22;8557;52.068;5.198;2023-03-13T04:31:49;11.60;99.90
16881;DHT22;8557;52.068;5.198;2023-03-13T04:34:16;11.60;99.90
16881;DHT22;8557;52.068;5.198;2023-03-13T04:36:43;11.70;99.90
16881;DHT22;8557;52.068;5.198;2023-03-13T04:39:09;11.70;99.90
16881;DHT22;8557;52.068;5.198;2023-03-13T04:41:36;11.70;99.90
16881;DHT22;8557;52.068;5.198;2023-03-13T04:44:05;11.80;99.90
16881;DHT22;8557;52.068;5.198;2023-03-13T04:46:31;11.80;99.90
16881;DHT22;8557;52.068;5.198;2023-03-13T04:48:58;11.80;99.90
16881;DHT22;8557;52.068;5.198;2023-03-13T04:51:25;11.80;99.90
16881;DHT22;8557;52.068;5.198;2023-03-13T04:53:52;11.80;99.90
16881;DHT22;8557;52.068;5.198;2023-03-13T04:56:22;11.80;99.90
16881;DHT22;8557;52.068;5.198;2023-03-13T04:58:49;11.90;99.90
16881;DHT22;8557;52.068;5.198;2023-03-13T05:01:18;11.90;99.90
16881;DHT22;8557;52.068;5.198;2023-03-13T05:03:44;11.90;99.90
16881;DHT22;8557;52.068;5.198;2023-03-13T05:06:12;11.90;99.90
16881;DHT22;8557;52.068;5.198;2023-03-13T05:08:39;11.90;99.90
16881;DHT22;8557;52.068;5.198;2023-03-13T05:11:05;12.00;99.90
16881;DHT22;8557;52.068;5.198;2023-03-13T05:13:32;12.00;99.90
16881;DHT22;8557;52.068;5.198;2023-03-13T05:15:59;12.00;99.90
16881;DHT22;8557;52.068;5.198;2023-03-13T05:18:27;12.00;99.90
16881;DHT22;8557;52.068;5.198;2023-03-13T05:20:54;12.10;99.90
16881;DHT22;8557;52.068;5.198;2023-03-13T05:23:21;12.10;99.90
16881;DHT22;8557;52.068;5.198;2023-03-13T05:25:48;12.00;99.90
16881;DHT22;8557;52.068;5.198;2023-03-13T05:28:14;12.00;99.90
16881;DHT22;8557;52.068;5.198;2023-03-13T05:30:41;12.00;99.90
16881;DHT22;8557;52.068;5.198;2023-03-13T05:33:08;12.00;99.90
16881;DHT22;8557;52.068;5.198;2023-03-13T05:35:36;12.00;99.90
16881;DHT22;8557;52.068;5.198;2023-03-13T05:38:03;12.00;99.90
16881;DHT22;8557;52.068;5.198;2023-03-13T05:40:30;12.10;99.90
16881;DHT22;8557;52.068;5.198;2023-03-13T05:42:57;12.30;99.90
16881;DHT22;8557;52.068;5.198;2023-03-13T05:45:24;12.30;99.90
16881;DHT22;8557;52.068;5.198;2023-03-13T05:47:51;12.30;99.90
16881;DHT22;8557;52.068;5.198;2023-03-13T05:50:18;12.30;99.90
16881;DHT22;8557;52.068;5.198;2023-03-13T05:52:46;12.40;99.90
16881;DHT22;8557;52.068;5.198;2023-03-13T05:55:13;12.40;99.90
16881;DHT22;8557;52.068;5.198;2023-03-13T05:57:43;12.50;99.90
16881;DHT22;8557;52.068;5.198;2023-03-13T06:00:11;12.50;99.90
16881;DHT22;8557;52.068;5.198;2023-03-13T06:02:39;12.50;99.90
16881;DHT22;8557;52.068;5.198;2023-03-13T06:05:06;12.50;99.90
16881;DHT22;8557;52.068;5.198;2023-03-13T06:07:33;12.50;99.90
16881;DHT22;8557;52.068;5.198;2023-03-13T06:10:01;12.60;99.90
16881;DHT22;8557;52.068;5.198;2023-03-13T06:12:28;12.50;99.90
16881;DHT22;8557;52.068;5.198;2023-03-13T06:14:55;12.50;99.90
16881;DHT22;8557;52.068;5.198;2023-03-13T06:17:22;12.50;99.90
16881;DHT22;8557;52.068;5.198;2023-03-13T06:19:49;12.50;99.90
16881;DHT22;8557;52.068;5.198;2023-03-13T06:22:16;12.60;99.90
16881;DHT22;8557;52.068;5.198;2023-03-13T06:24:43;12.60;99.90
16881;DHT22;8557;52.068;5.198;2023-03-13T06:27:12;12.60;99.90
16881;DHT22;8557;52.068;5.198;2023-03-13T06:29:39;12.70;99.90
16881;DHT22;8557;52.068;5.198;2023-03-13T06:32:06;12.60;99.90
16881;DHT22;8557;52.068;5.198;2023-03-13T06:34:33;12.60;99.90
16881;DHT22;8557;52.068;5.198;2023-03-13T06:37:00;12.70;99.90
16881;DHT22;8557;52.068;5.198;2023-03-13T06:39:27;12.70;99.90
16881;DHT22;8557;52.068;5.198;2023-03-13T06:41:54;12.70;99.90
16881;DHT22;8557;52.068;5.198;2023-03-13T06:44:22;12.70;99.90
16881;DHT22;8557;52.068;5.198;2023-03-13T06:46:48;12.70;99.90
16881;DHT22;8557;52.068;5.198;2023-03-13T06:49:15;12.80;99.90
16881;DHT22;8557;52.068;5.198;2023-03-13T06:51:42;12.70;99.90
16881;DHT22;8557;52.068;5.198;2023-03-13T06:54:09;12.70;99.90
16881;DHT22;8557;52.068;5.198;2023-03-13T06:56:36;12.80;99.90
16881;DHT22;8557;52.068;5.198;2023-03-13T06:59:02;12.80;99.90
16881;DHT22;8557;52.068;5.198;2023-03-13T07:01:30;12.80;99.90
16881;DHT22;8557;52.068;5.198;2023-03-13T07:03:57;12.80;99.90
16881;DHT22;8557;52.068;5.198;2023-03-13T07:06:24;12.70;99.90
16881;DHT22;8557;52.068;5.198;2023-03-13T07:08:51;12.70;99.90
16881;DHT22;8557;52.068;5.198;2023-03-13T07:11:18;12.60;99.90
16881;DHT22;8557;52.068;5.198;2023-03-13T07:13:45;12.50;99.90
16881;DHT22;8557;52.068;5.198;2023-03-13T07:16:12;12.40;99.90
16881;DHT22;8557;52.068;5.198;2023-03-13T07:18:40;12.30;99.90
16881;DHT22;8557;52.068;5.198;2023-03-13T07:21:09;12.30;99.90
16881;DHT22;8557;52.068;5.198;2023-03-13T07:23:36;12.20;99.90
16881;DHT22;8557;52.068;5.198;2023-03-13T07:26:05;12.20;99.90
16881;DHT22;8557;52.068;5.198;2023-03-13T07:28:33;12.20;99.90
16881;DHT22;8557;52.068;5.198;2023-03-13T07:31:04;12.20;99.90
16881;DHT22;8557;52.068;5.198;2023-03-13T07:33:31;12.10;99.90
16881;DHT22;8557;52.068;5.198;2023-03-13T07:35:59;12.10;99.90
16881;DHT22;8557;52.068;5.198;2023-03-13T07:38:26;12.00;99.90
16881;DHT22;8557;52.068;5.198;2023-03-13T07:40:54;11.90;99.90
16881;DHT22;8557;52.068;5.198;2023-03-13T07:43:22;11.90;99.90
16881;DHT22;8557;52.068;5.198;2023-03-13T07:45:51;11.90;99.90
16881;DHT22;8557;52.068;5.198;2023-03-13T07:48:18;11.90;99.90
16881;DHT22;8557;52.068;5.198;2023-03-13T07:50:45;11.90;99.90
16881;DHT22;8557;52.068;5.198;2023-03-13T07:53:13;11.90;99.90
16881;DHT22;8557;52.068;5.198;2023-03-13T07:55:54;11.90;99.90
16881;DHT22;8557;52.068;5.198;2023-03-13T07:58:22;11.90;99.90
16881;DHT22;8557;52.068;5.198;2023-03-13T08:00:49;12.00;99.90
16881;DHT22;8557;52.068;5.198;2023-03-13T08:03:16;12.00;99.90
16881;DHT22;8557;52.068;5.198;2023-03-13T08:05:43;12.00;99.90
16881;DHT22;8557;52.068;5.198;2023-03-13T08:08:09;12.00;99.90
16881;DHT22;8557;52.068;5.198;2023-03-13T08:10:38;12.00;99.90
16881;DHT22;8557;52.068;5.198;2023-03-13T08:13:05;12.00;99.90
16881;DHT22;8557;52.068;5.198;2023-03-13T08:15:32;11.90;99.90
16881;DHT22;8557;52.068;5.198;2023-03-13T08:18:03;11.80;99.90
16881;DHT22;8557;52.068;5.198;2023-03-13T08:20:33;11.80;99.90
16881;DHT22;8557;52.068;5.198;2023-03-13T08:23:00;11.80;99.90
16881;DHT22;8557;52.068;5.198;2023-03-13T08:25:27;11.80;99.90
16881;DHT22;8557;52.068;5.198;2023-03-13T08:27:55;11.80;99.90
16881;DHT22;8557;52.068;5.198;2023-03-13T08:30:22;11.90;99.90
16881;DHT22;8557;52.068;5.198;2023-03-13T08:32:49;11.80;99.90
16881;DHT22;8557;52.068;5.198;2023-03-13T08:35:16;11.90;99.90
16881;DHT22;8557;52.068;5.198;2023-03-13T08:37:43;12.00;99.90
16881;DHT22;8557;52.068;5.198;2023-03-13T08:40:11;12.10;99.90
16881;DHT22;8557;52.068;5.198;2023-03-13T08:42:38;12.10;99.90
16881;DHT22;8557;52.068;5.198;2023-03-13T08:45:08;12.20;99.90
16881;DHT22;8557;52.068;5.198;2023-03-13T08:47:35;12.20;99.90
16881;DHT22;8557;52.068;5.198;2023-03-13T08:50:02;12.30;99.90
16881;DHT22;8557;52.068;5.198;2023-03-13T08:52:30;12.40;99.90
16881;DHT22;8557;52.068;5.198;2023-03-13T08:54:56;12.50;99.90
16881;DHT22;8557;52.068;5.198;2023-03-13T08:57:23;12.50;99.90
16881;DHT22;8557;52.068;5.198;2023-03-13T08:59:50;12.60;99.90
16881;DHT22;8557;52.068;5.198;2023-03-13T09:02:19;12.60;99.90
16881;DHT22;8557;52.068;5.198;2023-03-13T09:04:46;12.60;99.90
16881;DHT22;8557;52.068;5.198;2023-03-13T09:07:14;12.70;99.90
16881;DHT22;8557;52.068;5.198;2023-03-13T09:09:42;12.60;99.90
16881;DHT22;8557;52.068;5.198;2023-03-13T09:12:09;12.60;99.90
16881;DHT22;8557;52.068;5.198;2023-03-13T09:14:36;12.80;99.90
16881;DHT22;8557;52.068;5.198;2023-03-13T09:17:04;13.00;99.90
16881;DHT22;8557;52.068;5.198;2023-03-13T09:19:32;13.30;99.90
16881;DHT22;8557;52.068;5.198;2023-03-13T09:21:59;13.70;99.90
16881;DHT22;8557;52.068;5.198;2023-03-13T09:24:26;13.90;99.90
16881;DHT22;8557;52.068;5.198;2023-03-13T09:26:52;13.90;99.90
16881;DHT22;8557;52.068;5.198;2023-03-13T09:29:19;13.90;99.90
16881;DHT22;8557;52.068;5.198;2023-03-13T09:31:46;14.10;99.90
16881;DHT22;8557;52.068;5.198;2023-03-13T09:34:13;14.50;99.90
16881;DHT22;8557;52.068;5.198;2023-03-13T09:36:41;14.60;99.90
16881;DHT22;8557;52.068;5.198;2023-03-13T09:39:08;14.60;99.90
16881;DHT22;8557;52.068;5.198;2023-03-13T09:41:38;14.50;99.90
16881;DHT22;8557;52.068;5.198;2023-03-13T09:44:11;14.80;99.90
16881;DHT22;8557;52.068;5.198;2023-03-13T09:46:47;15.10;99.90
16881;DHT22;8557;52.068;5.198;2023-03-13T09:49:27;15.10;99.90
16881;DHT22;8557;52.068;5.198;2023-03-13T09:52:01;15.20;99.90
16881;DHT22;8557;52.068;5.198;2023-03-13T09:54:35;15.60;99.90
16881;DHT22;8557;52.068;5.198;2023-03-13T09:57:10;15.90;99.90
16881;DHT22;8557;52.068;5.198;2023-03-13T09:59:44;16.00;99.90
16881;DHT22;8557;52.068;5.198;2023-03-13T10:02:20;16.00;99.90
16881;DHT22;8557;52.068;5.198;2023-03-13T10:04:52;16.00;99.90
16881;DHT22;8557;52.068;5.198;2023-03-13T10:07:22;16.40;99.90
16881;DHT22;8557;52.068;5.198;2023-03-13T10:09:49;16.30;99.90
16881;DHT22;8557;52.068;5.198;2023-03-13T10:12:18;16.10;99.90
16881;DHT22;8557;52.068;5.198;2023-03-13T10:14:53;16.70;99.90
16881;DHT22;8557;52.068;5.198;2023-03-13T10:17:30;16.90;99.90
16881;DHT22;8557;52.068;5.198;2023-03-13T10:20:00;17.20;99.90
16881;DHT22;8557;52.068;5.198;2023-03-13T10:22:35;16.40;99.90
16881;DHT22;8557;52.068;5.198;2023-03-13T10:25:06;16.10;99.90
16881;DHT22;8557;52.068;5.198;2023-03-13T10:27:42;16.40;99.90
16881;DHT22;8557;52.068;5.198;2023-03-13T10:30:27;16.00;99.90
16881;DHT22;8557;52.068;5.198;2023-03-13T10:32:57;15.80;99.90
16881;DHT22;8557;52.068;5.198;2023-03-13T10:35:31;15.70;99.90
16881;DHT22;8557;52.068;5.198;2023-03-13T10:38:04;16.00;99.90
16881;DHT22;8557;52.068;5.198;2023-03-13T10:40:31;16.00;99.90
16881;DHT22;8557;52.068;5.198;2023-03-13T10:43:03;16.00;99.90
